sensor_id;sensor_type;location;lat;lon;timestamp;temperature;humidity
47765;DHT22;33529;49.242;8.670;2022-09-09T00:01:43;15.60;99.90
47765;DHT22;33529;49.242;8.670;2022-09-09T00:03:48;15.60;99.90
47765;DHT22;33529;49.242;8.670;2022-09-09T00:09:00;15.60;99.90
47765;DHT22;33529;49.242;8.670;2022-09-09T00:11:30;15.50;99.90
47765;DHT22;33529;49.242;8.670;2022-09-09T00:14:01;15.60;99.90
47765;DHT22;33529;49.242;8.670;2022-09-09T00:16:32;15.60;99.90
47765;DHT22;33529;49.242;8.670;2022-09-09T00:21:38;15.70;99.90
47765;DHT22;33529;49.242;8.670;2022-09-09T00:24:15;15.70;99.90
47765;DHT22;33529;49.242;8.670;2022-09-09T00:26:45;15.70;99.90
47765;DHT22;33529;49.242;8.670;2022-09-09T00:31:41;15.70;99.90
47765;DHT22;33529;49.242;8.670;2022-09-09T00:34:11;15.70;99.90
47765;DHT22;33529;49.242;8.670;2022-09-09T00:36:40;15.70;99.90
47765;DHT22;33529;49.242;8.670;2022-09-09T00:39:09;15.70;99.90
47765;DHT22;33529;49.242;8.670;2022-09-09T00:41:43;15.70;99.90
47765;DHT22;33529;49.242;8.670;2022-09-09T00:46:49;15.70;99.90
47765;DHT22;33529;49.242;8.670;2022-09-09T00:49:31;15.80;99.90
47765;DHT22;33529;49.242;8.670;2022-09-09T00:52:16;15.80;99.90
47765;DHT22;33529;49.242;8.670;2022-09-09T00:59:48;15.70;99.90
47765;DHT22;33529;49.242;8.670;2022-09-09T01:02:21;15.70;99.90
47765;DHT22;33529;49.242;8.670;2022-09-09T01:04:50;15.70;99.90
47765;DHT22;33529;49.242;8.670;2022-09-09T01:07:17;15.70;99.90
47765;DHT22;33529;49.242;8.670;2022-09-09T01:09:56;15.70;99.90
47765;DHT22;33529;49.242;8.670;2022-09-09T01:12:24;15.80;99.90
47765;DHT22;33529;49.242;8.670;2022-09-09T01:14:56;15.80;99.90
47765;DHT22;33529;49.242;8.670;2022-09-09T01:17:34;15.80;99.90
47765;DHT22;33529;49.242;8.670;2022-09-09T01:28:25;16.00;99.90
47765;DHT22;33529;49.242;8.670;2022-09-09T01:30:59;15.90;99.90
47765;DHT22;33529;49.242;8.670;2022-09-09T01:33:31;15.80;99.90
47765;DHT22;33529;49.242;8.670;2022-09-09T01:38:32;15.80;99.90
47765;DHT22;33529;49.242;8.670;2022-09-09T01:41:00;15.90;99.90
47765;DHT22;33529;49.242;8.670;2022-09-09T01:43:38;15.80;99.90
47765;DHT22;33529;49.242;8.670;2022-09-09T01:46:05;15.90;99.90
47765;DHT22;33529;49.242;8.670;2022-09-09T01:48:35;15.80;99.90
47765;DHT22;33529;49.242;8.670;2022-09-09T01:51:05;15.80;99.90
47765;DHT22;33529;49.242;8.670;2022-09-09T01:53:32;15.80;99.90
47765;DHT22;33529;49.242;8.670;2022-09-09T01:58:54;15.80;99.90
47765;DHT22;33529;49.242;8.670;2022-09-09T02:01:30;15.70;99.90
47765;DHT22;33529;49.242;8.670;2022-09-09T02:03:59;15.80;99.90
47765;DHT22;33529;49.242;8.670;2022-09-09T02:06:35;15.80;99.90
47765;DHT22;33529;49.242;8.670;2022-09-09T02:09:13;15.80;99.90
47765;DHT22;33529;49.242;8.670;2022-09-09T02:11:42;15.80;99.90
47765;DHT22;33529;49.242;8.670;2022-09-09T02:14:34;15.80;99.90
47765;DHT22;33529;49.242;8.670;2022-09-09T02:17:03;15.80;99.90
47765;DHT22;33529;49.242;8.670;2022-09-09T02:19:52;15.80;99.90
47765;DHT22;33529;49.242;8.670;2022-09-09T02:22:35;15.90;99.90
47765;DHT22;33529;49.242;8.670;2022-09-09T02:25:08;15.90;99.90
47765;DHT22;33529;49.242;8.670;2022-09-09T02:27:35;15.90;99.90
47765;DHT22;33529;49.242;8.670;2022-09-09T02:30:03;15.80;99.90
47765;DHT22;33529;49.242;8.670;2022-09-09T02:32:36;15.90;99.90
47765;DHT22;33529;49.242;8.670;2022-09-09T02:35:08;15.80;99.90
47765;DHT22;33529;49.242;8.670;2022-09-09T02:37:41;15.70;99.90
47765;DHT22;33529;49.242;8.670;2022-09-09T02:40:09;15.60;99.90
47765;DHT22;33529;49.242;8.670;2022-09-09T02:42:42;15.70;99.90
47765;DHT22;33529;49.242;8.670;2022-09-09T02:45:10;15.50;99.90
47765;DHT22;33529;49.242;8.670;2022-09-09T02:55:32;15.60;99.90
47765;DHT22;33529;49.242;8.670;2022-09-09T02:58:04;15.60;99.90
47765;DHT22;33529;49.242;8.670;2022-09-09T03:00:37;15.60;99.90
47765;DHT22;33529;49.242;8.670;2022-09-09T03:03:08;15.60;99.90
47765;DHT22;33529;49.242;8.670;2022-09-09T03:05:36;15.60;99.90
47765;DHT22;33529;49.242;8.670;2022-09-09T03:08:10;15.60;99.90
47765;DHT22;33529;49.242;8.670;2022-09-09T03:10:37;15.60;99.90
47765;DHT22;33529;49.242;8.670;2022-09-09T03:13:04;15.60;99.90
47765;DHT22;33529;49.242;8.670;2022-09-09T03:15:36;15.60;99.90
47765;DHT22;33529;49.242;8.670;2022-09-09T03:18:05;15.60;99.90
47765;DHT22;33529;49.242;8.670;2022-09-09T03:20:32;15.60;99.90
47765;DHT22;33529;49.242;8.670;2022-09-09T03:23:00;15.60;99.90
47765;DHT22;33529;49.242;8.670;2022-09-09T03:25:27;15.60;99.90
47765;DHT22;33529;49.242;8.670;2022-09-09T03:27:55;15.60;99.90
47765;DHT22;33529;49.242;8.670;2022-09-09T03:30:24;15.60;99.90
47765;DHT22;33529;49.242;8.670;2022-09-09T03:32:53;15.50;99.90
47765;DHT22;33529;49.242;8.670;2022-09-09T03:35:24;15.50;99.90
47765;DHT22;33529;49.242;8.670;2022-09-09T03:37:51;15.50;99.90
47765;DHT22;33529;49.242;8.670;2022-09-09T03:40:18;15.50;99.90
47765;DHT22;33529;49.242;8.670;2022-09-09T03:42:47;15.50;99.90
47765;DHT22;33529;49.242;8.670;2022-09-09T03:45:17;15.50;99.90
47765;DHT22;33529;49.242;8.670;2022-09-09T03:47:43;15.50;99.90
47765;DHT22;33529;49.242;8.670;2022-09-09T03:50:13;15.50;99.90
47765;DHT22;33529;49.242;8.670;2022-09-09T03:52:44;15.50;99.90
47765;DHT22;33529;49.242;8.670;2022-09-09T03:55:18;15.50;99.90
47765;DHT22;33529;49.242;8.670;2022-09-09T03:57:45;15.50;99.90
47765;DHT22;33529;49.242;8.670;2022-09-09T04:00:12;15.60;99.90
47765;DHT22;33529;49.242;8.670;2022-09-09T04:02:42;15.60;99.90
47765;DHT22;33529;49.242;8.670;2022-09-09T04:05:13;15.60;99.90
47765;DHT22;33529;49.242;8.670;2022-09-09T04:07:42;15.60;99.90
47765;DHT22;33529;49.242;8.670;2022-09-09T04:10:09;15.60;99.90
47765;DHT22;33529;49.242;8.670;2022-09-09T04:12:38;15.60;99.90
47765;DHT22;33529;49.242;8.670;2022-09-09T04:15:06;15.60;99.90
47765;DHT22;33529;49.242;8.670;2022-09-09T04:17:34;15.70;99.90
47765;DHT22;33529;49.242;8.670;2022-09-09T04:20:03;15.70;99.90
47765;DHT22;33529;49.242;8.670;2022-09-09T04:22:30;15.60;99.90
47765;DHT22;33529;49.242;8.670;2022-09-09T04:24:58;15.60;99.90
47765;DHT22;33529;49.242;8.670;2022-09-09T04:27:27;15.60;99.90
47765;DHT22;33529;49.242;8.670;2022-09-09T04:29:53;15.60;99.90
47765;DHT22;33529;49.242;8.670;2022-09-09T04:32:21;15.50;99.90
47765;DHT22;33529;49.242;8.670;2022-09-09T04:34:48;15.50;99.90
47765;DHT22;33529;49.242;8.670;2022-09-09T04:37:15;15.60;99.90
47765;DHT22;33529;49.242;8.670;2022-09-09T04:39:54;15.60;99.90
47765;DHT22;33529;49.242;8.670;2022-09-09T04:42:22;15.60;99.90
47765;DHT22;33529;49.242;8.670;2022-09-09T04:44:49;15.60;99.90
47765;DHT22;33529;49.242;8.670;2022-09-09T04:47:16;15.60;99.90
47765;DHT22;33529;49.242;8.670;2022-09-09T04:49:44;15.50;99.90
47765;DHT22;33529;49.242;8.670;2022-09-09T04:52:10;15.60;99.90
47765;DHT22;33529;49.242;8.670;2022-09-09T04:54:37;15.60;99.90
47765;DHT22;33529;49.242;8.670;2022-09-09T04:57:04;15.50;99.90
47765;DHT22;33529;49.242;8.670;2022-09-09T04:59:32;15.60;99.90
47765;DHT22;33529;49.242;8.670;2022-09-09T05:02:01;15.50;99.90
47765;DHT22;33529;49.242;8.670;2022-09-09T05:04:30;15.50;99.90
47765;DHT22;33529;49.242;8.670;2022-09-09T05:06:57;15.60;99.90
47765;DHT22;33529;49.242;8.670;2022-09-09T05:09:24;15.60;99.90
47765;DHT22;33529;49.242;8.670;2022-09-09T05:11:51;15.60;99.90
47765;DHT22;33529;49.242;8.670;2022-09-09T05:14:40;15.60;99.90
47765;DHT22;33529;49.242;8.670;2022-09-09T05:17:07;15.60;99.90
47765;DHT22;33529;49.242;8.670;2022-09-09T05:19:36;15.60;99.90
47765;DHT22;33529;49.242;8.670;2022-09-09T05:22:03;15.50;99.90
47765;DHT22;33529;49.242;8.670;2022-09-09T05:24:39;15.50;99.90
47765;DHT22;33529;49.242;8.670;2022-09-09T05:27:06;15.50;99.90
47765;DHT22;33529;49.242;8.670;2022-09-09T05:29:33;15.60;99.90
47765;DHT22;33529;49.242;8.670;2022-09-09T05:32:02;15.50;99.90
47765;DHT22;33529;49.242;8.670;2022-09-09T05:34:29;15.60;99.90
47765;DHT22;33529;49.242;8.670;2022-09-09T05:36:56;15.70;99.90
47765;DHT22;33529;49.242;8.670;2022-09-09T05:39:24;15.80;99.90
47765;DHT22;33529;49.242;8.670;2022-09-09T05:41:50;15.80;99.90
47765;DHT22;33529;49.242;8.670;2022-09-09T05:44:17;15.90;99.90
47765;DHT22;33529;49.242;8.670;2022-09-09T05:46:46;15.90;99.90
47765;DHT22;33529;49.242;8.670;2022-09-09T05:49:13;16.00;99.90
47765;DHT22;33529;49.242;8.670;2022-09-09T05:51:42;16.00;99.90
47765;DHT22;33529;49.242;8.670;2022-09-09T05:54:12;16.00;99.90
47765;DHT22;33529;49.242;8.670;2022-09-09T05:56:46;16.00;99.90
47765;DHT22;33529;49.242;8.670;2022-09-09T05:59:17;16.20;99.90
47765;DHT22;33529;49.242;8.670;2022-09-09T06:01:44;16.30;99.90
47765;DHT22;33529;49.242;8.670;2022-09-09T06:04:27;16.30;99.90
47765;DHT22;33529;49.242;8.670;2022-09-09T06:06:54;16.30;99.90
47765;DHT22;33529;49.242;8.670;2022-09-09T06:09:22;16.40;99.90
47765;DHT22;33529;49.242;8.670;2022-09-09T06:11:49;16.30;99.90
47765;DHT22;33529;49.242;8.670;2022-09-09T06:14:16;16.40;99.90
47765;DHT22;33529;49.242;8.670;2022-09-09T06:16:46;16.30;99.90
47765;DHT22;33529;49.242;8.670;2022-09-09T06:19:27;16.30;99.90
47765;DHT22;33529;49.242;8.670;2022-09-09T06:21:56;16.40;99.90
47765;DHT22;33529;49.242;8.670;2022-09-09T06:24:23;16.50;99.90
47765;DHT22;33529;49.242;8.670;2022-09-09T06:26:50;16.80;99.90
47765;DHT22;33529;49.242;8.670;2022-09-09T06:29:21;17.00;99.90
47765;DHT22;33529;49.242;8.670;2022-09-09T06:31:50;17.10;99.90
47765;DHT22;33529;49.242;8.670;2022-09-09T06:34:21;17.10;99.90
47765;DHT22;33529;49.242;8.670;2022-09-09T06:36:56;17.10;99.90
47765;DHT22;33529;49.242;8.670;2022-09-09T06:39:29;17.00;99.90
47765;DHT22;33529;49.242;8.670;2022-09-09T06:41:59;17.00;99.90
47765;DHT22;33529;49.242;8.670;2022-09-09T06:44:55;17.10;99.90
47765;DHT22;33529;49.242;8.670;2022-09-09T06:47:36;17.20;99.90
47765;DHT22;33529;49.242;8.670;2022-09-09T06:50:04;17.30;99.90
47765;DHT22;33529;49.242;8.670;2022-09-09T06:52:33;17.40;99.90
47765;DHT22;33529;49.242;8.670;2022-09-09T06:55:01;17.50;99.90
47765;DHT22;33529;49.242;8.670;2022-09-09T06:57:29;17.50;99.90
47765;DHT22;33529;49.242;8.670;2022-09-09T07:00:08;17.50;99.90
47765;DHT22;33529;49.242;8.670;2022-09-09T07:02:35;17.50;99.90
47765;DHT22;33529;49.242;8.670;2022-09-09T07:05:07;17.60;99.90
47765;DHT22;33529;49.242;8.670;2022-09-09T07:07:35;17.60;99.90
47765;DHT22;33529;49.242;8.670;2022-09-09T07:10:03;17.50;99.90
47765;DHT22;33529;49.242;8.670;2022-09-09T07:12:31;17.50;99.90
47765;DHT22;33529;49.242;8.670;2022-09-09T07:14:59;17.40;99.90
47765;DHT22;33529;49.242;8.670;2022-09-09T07:17:27;17.50;99.90
47765;DHT22;33529;49.242;8.670;2022-09-09T07:19:56;17.60;99.90
47765;DHT22;33529;49.242;8.670;2022-09-09T07:22:23;17.70;99.90
47765;DHT22;33529;49.242;8.670;2022-09-09T07:24:50;17.90;99.90
47765;DHT22;33529;49.242;8.670;2022-09-09T07:27:18;18.10;99.90
47765;DHT22;33529;49.242;8.670;2022-09-09T07:29:47;18.30;99.90
47765;DHT22;33529;49.242;8.670;2022-09-09T07:32:13;18.50;99.90
47765;DHT22;33529;49.242;8.670;2022-09-09T07:34:43;18.60;99.90
47765;DHT22;33529;49.242;8.670;2022-09-09T07:37:10;18.90;99.90
47765;DHT22;33529;49.242;8.670;2022-09-09T07:39:40;19.00;99.90
47765;DHT22;33529;49.242;8.670;2022-09-09T07:42:07;19.10;99.90
47765;DHT22;33529;49.242;8.670;2022-09-09T07:44:36;19.10;99.90
47765;DHT22;33529;49.242;8.670;2022-09-09T07:47:07;19.00;99.90
47765;DHT22;33529;49.242;8.670;2022-09-09T07:49:38;19.10;99.90
47765;DHT22;33529;49.242;8.670;2022-09-09T07:52:07;19.30;99.90
47765;DHT22;33529;49.242;8.670;2022-09-09T07:54:34;19.30;99.90
47765;DHT22;33529;49.242;8.670;2022-09-09T07:57:04;19.40;99.90
47765;DHT22;33529;49.242;8.670;2022-09-09T07:59:34;19.40;99.90
47765;DHT22;33529;49.242;8.670;2022-09-09T08:02:02;19.40;99.90
47765;DHT22;33529;49.242;8.670;2022-09-09T08:04:31;19.30;99.90
47765;DHT22;33529;49.242;8.670;2022-09-09T08:06:59;19.50;99.90
47765;DHT22;33529;49.242;8.670;2022-09-09T08:09:28;19.60;99.90
47765;DHT22;33529;49.242;8.670;2022-09-09T08:12:09;19.80;99.90
47765;DHT22;33529;49.242;8.670;2022-09-09T08:14:39;19.90;99.90
47765;DHT22;33529;49.242;8.670;2022-09-09T08:17:06;20.00;99.90
47765;DHT22;33529;49.242;8.670;2022-09-09T08:19:33;20.20;99.90
47765;DHT22;33529;49.242;8.670;2022-09-09T08:22:06;20.20;99.90
47765;DHT22;33529;49.242;8.670;2022-09-09T08:24:35;20.30;99.90
47765;DHT22;33529;49.242;8.670;2022-09-09T08:27:02;20.50;99.90
47765;DHT22;33529;49.242;8.670;2022-09-09T08:29:29;20.50;99.90
47765;DHT22;33529;49.242;8.670;2022-09-09T08:31:57;20.50;99.90
47765;DHT22;33529;49.242;8.670;2022-09-09T08:34:25;20.50;99.90
47765;DHT22;33529;49.242;8.670;2022-09-09T08:36:54;20.40;99.90
47765;DHT22;33529;49.242;8.670;2022-09-09T08:39:29;20.20;99.90
47765;DHT22;33529;49.242;8.670;2022-09-09T08:44:45;19.70;99.90
47765;DHT22;33529;49.242;8.670;2022-09-09T08:52:25;18.50;99.90
47765;DHT22;33529;49.242;8.670;2022-09-09T08:54:52;18.40;99.90
47765;DHT22;33529;49.242;8.670;2022-09-09T08:57:23;18.30;99.90
47765;DHT22;33529;49.242;8.670;2022-09-09T08:59:54;18.20;99.90
47765;DHT22;33529;49.242;8.670;2022-09-09T09:02:27;18.30;99.90
47765;DHT22;33529;49.242;8.670;2022-09-09T09:05:09;18.50;99.90
47765;DHT22;33529;49.242;8.670;2022-09-09T09:07:47;18.80;99.90
47765;DHT22;33529;49.242;8.670;2022-09-09T09:10:28;18.80;99.90
47765;DHT22;33529;49.242;8.670;2022-09-09T09:13:17;18.90;99.90
47765;DHT22;33529;49.242;8.670;2022-09-09T09:15:50;19.10;99.90
47765;DHT22;33529;49.242;8.670;2022-09-09T09:18:19;19.20;99.90
47765;DHT22;33529;49.242;8.670;2022-09-09T09:21:01;19.20;99.90
47765;DHT22;33529;49.242;8.670;2022-09-09T09:23:31;19.30;99.90
47765;DHT22;33529;49.242;8.670;2022-09-09T09:26:06;19.20;99.90
47765;DHT22;33529;49.242;8.670;2022-09-09T09:28:33;19.20;99.90
47765;DHT22;33529;49.242;8.670;2022-09-09T09:31:10;19.20;99.90
47765;DHT22;33529;49.242;8.670;2022-09-09T09:36:08;19.40;99.90
47765;DHT22;33529;49.242;8.670;2022-09-09T09:38:37;19.60;99.90
47765;DHT22;33529;49.242;8.670;2022-09-09T09:41:28;19.90;99.90
47765;DHT22;33529;49.242;8.670;2022-09-09T09:43:57;20.10;99.90
47765;DHT22;33529;49.242;8.670;2022-09-09T09:46:24;20.00;99.90
47765;DHT22;33529;49.242;8.670;2022-09-09T09:49:04;20.10;99.90
47765;DHT22;33529;49.242;8.670;2022-09-09T09:51:33;20.10;99.90
47765;DHT22;33529;49.242;8.670;2022-09-09T09:54:07;20.20;99.90
47765;DHT22;33529;49.242;8.670;2022-09-09T09:56:37;20.50;99.90
47765;DHT22;33529;49.242;8.670;2022-09-09T09:59:05;20.60;99.90
47765;DHT22;33529;49.242;8.670;2022-09-09T10:01:50;20.50;99.90
47765;DHT22;33529;49.242;8.670;2022-09-09T10:04:19;20.20;99.90
47765;DHT22;33529;49.242;8.670;2022-09-09T10:06:50;20.20;99.90
47765;DHT22;33529;49.242;8.670;2022-09-09T10:09:24;20.30;99.90
47765;DHT22;33529;49.242;8.670;2022-09-09T10:14:53;20.40;99.90
47765;DHT22;33529;49.242;8.670;2022-09-09T10:17:25;20.30;99.90
47765;DHT22;33529;49.242;8.670;2022-09-09T10:22:36;19.90;99.90
47765;DHT22;33529;49.242;8.670;2022-09-09T10:25:13;19.60;99.90
47765;DHT22;33529;49.242;8.670;2022-09-09T10:33:16;19.30;99.90
47765;DHT22;33529;49.242;8.670;2022-09-09T10:43:53;19.70;99.90
47765;DHT22;33529;49.242;8.670;2022-09-09T10:51:54;20.00;99.90
47765;DHT22;33529;49.242;8.670;2022-09-09T10:54:38;20.10;99.90
47765;DHT22;33529;49.242;8.670;2022-09-09T10:57:11;20.20;99.90
47765;DHT22;33529;49.242;8.670;2022-09-09T10:59:41;20.40;99.90
47765;DHT22;33529;49.242;8.670;2022-09-09T11:04:40;20.20;99.90
47765;DHT22;33529;49.242;8.670;2022-09-09T11:07:10;20.10;99.90
47765;DHT22;33529;49.242;8.670;2022-09-09T11:09:41;20.00;99.90
47765;DHT22;33529;49.242;8.670;2022-09-09T11:12:10;20.10;99.90
47765;DHT22;33529;49.242;8.670;2022-09-09T11:14:43;20.00;99.90
47765;DHT22;33529;49.242;8.670;2022-09-09T11:17:15;20.20;99.90
47765;DHT22;33529;49.242;8.670;2022-09-09T11:19:44;20.40;99.90
47765;DHT22;33529;49.242;8.670;2022-09-09T11:22:24;20.70;99.90
47765;DHT22;33529;49.242;8.670;2022-09-09T11:24:56;20.80;99.90
47765;DHT22;33529;49.242;8.670;2022-09-09T11:27:28;20.90;99.90
47765;DHT22;33529;49.242;8.670;2022-09-09T11:30:02;20.80;99.90
47765;DHT22;33529;49.242;8.670;2022-09-09T11:32:34;21.00;99.90
47765;DHT22;33529;49.242;8.670;2022-09-09T11:37:54;21.10;99.90
47765;DHT22;33529;49.242;8.670;2022-09-09T11:40:23;21.00;99.90
47765;DHT22;33529;49.242;8.670;2022-09-09T11:45:39;21.30;99.90
47765;DHT22;33529;49.242;8.670;2022-09-09T11:48:23;21.50;99.90
47765;DHT22;33529;49.242;8.670;2022-09-09T11:51:27;21.60;99.90
47765;DHT22;33529;49.242;8.670;2022-09-09T11:53:49;21.70;99.90
47765;DHT22;33529;49.242;8.670;2022-09-09T11:56:29;21.70;99.90
47765;DHT22;33529;49.242;8.670;2022-09-09T11:59:01;21.60;99.90
47765;DHT22;33529;49.242;8.670;2022-09-09T12:04:07;22.00;99.90
47765;DHT22;33529;49.242;8.670;2022-09-09T12:06:44;22.30;99.50
47765;DHT22;33529;49.242;8.670;2022-09-09T12:09:29;22.40;99.20
47765;DHT22;33529;49.242;8.670;2022-09-09T12:12:05;22.40;99.30
47765;DHT22;33529;49.242;8.670;2022-09-09T12:14:36;22.70;99.90
47765;DHT22;33529;49.242;8.670;2022-09-09T12:19:39;23.00;99.80
47765;DHT22;33529;49.242;8.670;2022-09-09T12:22:13;22.90;97.60
47765;DHT22;33529;49.242;8.670;2022-09-09T12:25:26;22.90;96.60
47765;DHT22;33529;49.242;8.670;2022-09-09T12:27:58;22.70;97.50
47765;DHT22;33529;49.242;8.670;2022-09-09T12:30:29;22.30;97.30
47765;DHT22;33529;49.242;8.670;2022-09-09T12:33:02;22.10;97.30
47765;DHT22;33529;49.242;8.670;2022-09-09T12:35:28;21.90;98.80
47765;DHT22;33529;49.242;8.670;2022-09-09T12:37:58;21.60;98.30
47765;DHT22;33529;49.242;8.670;2022-09-09T12:40:27;21.30;99.00
47765;DHT22;33529;49.242;8.670;2022-09-09T12:42:55;21.30;99.90
47765;DHT22;33529;49.242;8.670;2022-09-09T12:45:23;21.30;99.90
47765;DHT22;33529;49.242;8.670;2022-09-09T12:48:03;21.20;99.90
47765;DHT22;33529;49.242;8.670;2022-09-09T12:50:34;21.10;99.90
47765;DHT22;33529;49.242;8.670;2022-09-09T12:53:04;21.00;99.90
47765;DHT22;33529;49.242;8.670;2022-09-09T12:55:37;20.90;99.90
47765;DHT22;33529;49.242;8.670;2022-09-09T12:58:11;20.80;99.90
47765;DHT22;33529;49.242;8.670;2022-09-09T13:00:48;20.60;99.90
47765;DHT22;33529;49.242;8.670;2022-09-09T13:03:17;20.40;99.90
47765;DHT22;33529;49.242;8.670;2022-09-09T13:05:44;20.10;99.90
47765;DHT22;33529;49.242;8.670;2022-09-09T13:08:13;20.00;99.90
47765;DHT22;33529;49.242;8.670;2022-09-09T13:10:43;20.00;99.90
47765;DHT22;33529;49.242;8.670;2022-09-09T13:13:21;19.90;99.90
47765;DHT22;33529;49.242;8.670;2022-09-09T13:15:50;19.80;99.90
47765;DHT22;33529;49.242;8.670;2022-09-09T13:18:18;19.80;99.90
47765;DHT22;33529;49.242;8.670;2022-09-09T13:20:48;19.80;99.90
47765;DHT22;33529;49.242;8.670;2022-09-09T13:23:16;19.70;99.90
47765;DHT22;33529;49.242;8.670;2022-09-09T13:25:58;19.30;99.90
47765;DHT22;33529;49.242;8.670;2022-09-09T13:28:26;18.80;99.90
47765;DHT22;33529;49.242;8.670;2022-09-09T13:31:00;18.20;99.90
47765;DHT22;33529;49.242;8.670;2022-09-09T13:33:30;17.80;99.90
47765;DHT22;33529;49.242;8.670;2022-09-09T13:35:58;17.40;99.90
47765;DHT22;33529;49.242;8.670;2022-09-09T13:38:27;17.10;99.90
47765;DHT22;33529;49.242;8.670;2022-09-09T13:40:59;17.00;99.90
47765;DHT22;33529;49.242;8.670;2022-09-09T13:43:30;17.00;99.90
47765;DHT22;33529;49.242;8.670;2022-09-09T13:46:03;17.00;99.90
47765;DHT22;33529;49.242;8.670;2022-09-09T13:48:30;17.20;99.90
47765;DHT22;33529;49.242;8.670;2022-09-09T13:51:02;17.50;99.90
47765;DHT22;33529;49.242;8.670;2022-09-09T13:53:31;17.90;99.90
47765;DHT22;33529;49.242;8.670;2022-09-09T13:55:58;18.30;99.90
47765;DHT22;33529;49.242;8.670;2022-09-09T13:58:25;18.60;99.90
47765;DHT22;33529;49.242;8.670;2022-09-09T14:00:52;18.80;99.90
47765;DHT22;33529;49.242;8.670;2022-09-09T14:03:20;19.10;99.90
47765;DHT22;33529;49.242;8.670;2022-09-09T14:05:47;19.50;99.90
47765;DHT22;33529;49.242;8.670;2022-09-09T14:08:15;19.70;99.90
47765;DHT22;33529;49.242;8.670;2022-09-09T14:10:42;19.80;99.90
47765;DHT22;33529;49.242;8.670;2022-09-09T14:13:09;19.90;99.90
47765;DHT22;33529;49.242;8.670;2022-09-09T14:15:36;19.80;99.90
47765;DHT22;33529;49.242;8.670;2022-09-09T14:18:03;19.70;99.90
47765;DHT22;33529;49.242;8.670;2022-09-09T14:20:30;19.70;99.90
47765;DHT22;33529;49.242;8.670;2022-09-09T14:22:56;19.70;99.90
47765;DHT22;33529;49.242;8.670;2022-09-09T14:25:29;19.70;99.90
47765;DHT22;33529;49.242;8.670;2022-09-09T14:27:55;19.70;99.90
47765;DHT22;33529;49.242;8.670;2022-09-09T14:30:23;19.70;99.90
47765;DHT22;33529;49.242;8.670;2022-09-09T14:32:50;19.80;99.90
47765;DHT22;33529;49.242;8.670;2022-09-09T14:35:17;19.70;99.90
47765;DHT22;33529;49.242;8.670;2022-09-09T14:37:44;19.70;99.90
47765;DHT22;33529;49.242;8.670;2022-09-09T14:40:11;19.80;99.90
47765;DHT22;33529;49.242;8.670;2022-09-09T14:42:38;19.80;99.90
47765;DHT22;33529;49.242;8.670;2022-09-09T14:45:05;19.80;99.90
47765;DHT22;33529;49.242;8.670;2022-09-09T14:47:37;19.90;99.90
47765;DHT22;33529;49.242;8.670;2022-09-09T14:50:05;20.00;99.90
47765;DHT22;33529;49.242;8.670;2022-09-09T14:52:32;20.10;99.90
47765;DHT22;33529;49.242;8.670;2022-09-09T14:54:58;19.90;99.90
47765;DHT22;33529;49.242;8.670;2022-09-09T14:57:25;19.80;99.90
47765;DHT22;33529;49.242;8.670;2022-09-09T14:59:52;19.80;99.90
47765;DHT22;33529;49.242;8.670;2022-09-09T15:02:20;19.80;99.90
47765;DHT22;33529;49.242;8.670;2022-09-09T15:04:46;19.80;99.90
47765;DHT22;33529;49.242;8.670;2022-09-09T15:07:13;19.80;99.90
47765;DHT22;33529;49.242;8.670;2022-09-09T15:09:40;20.00;99.90
47765;DHT22;33529;49.242;8.670;2022-09-09T15:12:07;20.10;99.90
47765;DHT22;33529;49.242;8.670;2022-09-09T15:14:34;20.10;99.90
47765;DHT22;33529;49.242;8.670;2022-09-09T15:17:01;20.40;99.90
47765;DHT22;33529;49.242;8.670;2022-09-09T15:19:28;20.40;99.90
47765;DHT22;33529;49.242;8.670;2022-09-09T15:21:55;20.30;99.90
47765;DHT22;33529;49.242;8.670;2022-09-09T15:24:22;20.30;99.90
47765;DHT22;33529;49.242;8.670;2022-09-09T15:26:49;20.30;99.90
47765;DHT22;33529;49.242;8.670;2022-09-09T15:29:16;20.20;99.90
47765;DHT22;33529;49.242;8.670;2022-09-09T15:31:42;20.00;99.90
47765;DHT22;33529;49.242;8.670;2022-09-09T15:34:09;19.90;99.90
47765;DHT22;33529;49.242;8.670;2022-09-09T15:36:40;19.70;99.90
47765;DHT22;33529;49.242;8.670;2022-09-09T15:39:08;19.40;99.90
47765;DHT22;33529;49.242;8.670;2022-09-09T15:41:39;19.40;99.90
47765;DHT22;33529;49.242;8.670;2022-09-09T15:44:06;19.40;99.90
47765;DHT22;33529;49.242;8.670;2022-09-09T15:46:36;19.40;99.90
47765;DHT22;33529;49.242;8.670;2022-09-09T15:51:33;19.80;99.90
47765;DHT22;33529;49.242;8.670;2022-09-09T15:54:10;20.10;99.90
47765;DHT22;33529;49.242;8.670;2022-09-09T15:56:39;20.30;99.90
47765;DHT22;33529;49.242;8.670;2022-09-09T15:59:06;20.50;99.90
47765;DHT22;33529;49.242;8.670;2022-09-09T16:01:33;20.60;99.90
47765;DHT22;33529;49.242;8.670;2022-09-09T16:04:00;20.80;99.90
47765;DHT22;33529;49.242;8.670;2022-09-09T16:06:28;20.70;99.90
47765;DHT22;33529;49.242;8.670;2022-09-09T16:08:56;20.50;99.90
47765;DHT22;33529;49.242;8.670;2022-09-09T16:11:24;20.40;99.90
47765;DHT22;33529;49.242;8.670;2022-09-09T16:13:51;20.20;99.90
47765;DHT22;33529;49.242;8.670;2022-09-09T16:16:20;20.00;99.90
47765;DHT22;33529;49.242;8.670;2022-09-09T16:18:49;19.80;99.90
47765;DHT22;33529;49.242;8.670;2022-09-09T16:21:22;19.70;99.90
47765;DHT22;33529;49.242;8.670;2022-09-09T16:23:51;19.70;99.90
47765;DHT22;33529;49.242;8.670;2022-09-09T16:26:18;19.50;99.90
47765;DHT22;33529;49.242;8.670;2022-09-09T16:28:45;19.40;99.90
47765;DHT22;33529;49.242;8.670;2022-09-09T16:31:16;19.50;99.90
47765;DHT22;33529;49.242;8.670;2022-09-09T16:33:43;19.50;99.90
47765;DHT22;33529;49.242;8.670;2022-09-09T16:36:12;19.30;99.90
47765;DHT22;33529;49.242;8.670;2022-09-09T16:38:41;19.20;99.90
47765;DHT22;33529;49.242;8.670;2022-09-09T16:41:09;19.10;99.90
47765;DHT22;33529;49.242;8.670;2022-09-09T16:43:37;19.10;99.90
47765;DHT22;33529;49.242;8.670;2022-09-09T16:46:11;19.10;99.90
47765;DHT22;33529;49.242;8.670;2022-09-09T16:48:39;19.00;99.90
47765;DHT22;33529;49.242;8.670;2022-09-09T16:51:06;18.90;99.90
47765;DHT22;33529;49.242;8.670;2022-09-09T16:53:33;18.80;99.90
47765;DHT22;33529;49.242;8.670;2022-09-09T16:56:07;18.80;99.90
47765;DHT22;33529;49.242;8.670;2022-09-09T16:58:33;18.80;99.90
47765;DHT22;33529;49.242;8.670;2022-09-09T17:01:01;18.60;99.90
47765;DHT22;33529;49.242;8.670;2022-09-09T17:03:31;18.50;99.90
47765;DHT22;33529;49.242;8.670;2022-09-09T17:05:58;18.40;99.90
47765;DHT22;33529;49.242;8.670;2022-09-09T17:08:31;18.40;99.90
47765;DHT22;33529;49.242;8.670;2022-09-09T17:10:59;18.40;99.90
47765;DHT22;33529;49.242;8.670;2022-09-09T17:13:26;18.30;99.90
47765;DHT22;33529;49.242;8.670;2022-09-09T17:15:53;17.90;99.90
47765;DHT22;33529;49.242;8.670;2022-09-09T17:18:19;17.60;99.90